sensor_id;sensor_type;location;lat;lon;timestamp;P1;durP1;ratioP1;P2;durP2;ratioP2
12812;SDS011;6471;50.932;6.934;2022-08-01T00:00:03;2.10;;;1.60;;
12812;SDS011;6471;50.932;6.934;2022-08-01T00:02:30;2.90;;;1.70;;
12812;SDS011;6471;50.932;6.934;2022-08-01T00:04:57;3.73;;;1.80;;
12812;SDS011;6471;50.932;6.934;2022-08-01T00:07:23;3.00;;;1.63;;
12812;SDS011;6471;50.932;6.934;2022-08-01T00:09:49;3.50;;;1.70;;
12812;SDS011;6471;50.932;6.934;2022-08-01T00:12:15;2.27;;;1.37;;
12812;SDS011;6471;50.932;6.934;2022-08-01T00:14:41;2.90;;;1.70;;
12812;SDS011;6471;50.932;6.934;2022-08-01T00:17:07;3.20;;;1.97;;
12812;SDS011;6471;50.932;6.934;2022-08-01T00:19:33;2.73;;;1.70;;
12812;SDS011;6471;50.932;6.934;2022-08-01T00:21:59;1.90;;;1.57;;
12812;SDS011;6471;50.932;6.934;2022-08-01T00:24:25;3.07;;;1.50;;
12812;SDS011;6471;50.932;6.934;2022-08-01T00:26:51;3.23;;;1.60;;
12812;SDS011;6471;50.932;6.934;2022-08-01T00:29:17;2.70;;;1.83;;
12812;SDS011;6471;50.932;6.934;2022-08-01T00:31:43;1.93;;;1.60;;
12812;SDS011;6471;50.932;6.934;2022-08-01T00:34:09;1.93;;;1.53;;
12812;SDS011;6471;50.932;6.934;2022-08-01T00:36:35;2.43;;;1.57;;
12812;SDS011;6471;50.932;6.934;2022-08-01T00:39:01;2.20;;;1.40;;
12812;SDS011;6471;50.932;6.934;2022-08-01T00:41:28;1.73;;;1.57;;
12812;SDS011;6471;50.932;6.934;2022-08-01T00:43:54;3.63;;;1.60;;
12812;SDS011;6471;50.932;6.934;2022-08-01T00:46:20;2.27;;;1.70;;
12812;SDS011;6471;50.932;6.934;2022-08-01T00:48:46;2.30;;;1.60;;
12812;SDS011;6471;50.932;6.934;2022-08-01T00:51:12;3.03;;;1.70;;
12812;SDS011;6471;50.932;6.934;2022-08-01T00:53:38;2.03;;;1.60;;
12812;SDS011;6471;50.932;6.934;2022-08-01T00:56:05;1.80;;;1.70;;
12812;SDS011;6471;50.932;6.934;2022-08-01T00:58:31;2.40;;;1.73;;
12812;SDS011;6471;50.932;6.934;2022-08-01T01:00:58;2.20;;;2.00;;
12812;SDS011;6471;50.932;6.934;2022-08-01T01:03:24;2.27;;;2.00;;
12812;SDS011;6471;50.932;6.934;2022-08-01T01:05:56;3.13;;;1.87;;
12812;SDS011;6471;50.932;6.934;2022-08-01T01:08:30;3.17;;;2.10;;
12812;SDS011;6471;50.932;6.934;2022-08-01T01:11:00;2.23;;;2.00;;
12812;SDS011;6471;50.932;6.934;2022-08-01T01:16:01;2.57;;;1.90;;
12812;SDS011;6471;50.932;6.934;2022-08-01T01:18:33;2.43;;;1.97;;
12812;SDS011;6471;50.932;6.934;2022-08-01T01:21:44;2.83;;;2.10;;
12812;SDS011;6471;50.932;6.934;2022-08-01T01:31:40;2.20;;;1.90;;
12812;SDS011;6471;50.932;6.934;2022-08-01T01:34:08;2.70;;;2.17;;
12812;SDS011;6471;50.932;6.934;2022-08-01T01:36:35;3.20;;;2.27;;
12812;SDS011;6471;50.932;6.934;2022-08-01T01:39:01;3.37;;;2.40;;
12812;SDS011;6471;50.932;6.934;2022-08-01T01:41:27;3.73;;;2.50;;
12812;SDS011;6471;50.932;6.934;2022-08-01T01:43:54;3.83;;;2.30;;
12812;SDS011;6471;50.932;6.934;2022-08-01T01:46:23;2.93;;;2.33;;
12812;SDS011;6471;50.932;6.934;2022-08-01T01:48:51;3.70;;;2.20;;
12812;SDS011;6471;50.932;6.934;2022-08-01T01:51:20;2.53;;;2.20;;
12812;SDS011;6471;50.932;6.934;2022-08-01T01:53:47;4.03;;;2.40;;
12812;SDS011;6471;50.932;6.934;2022-08-01T01:56:14;3.13;;;2.17;;
12812;SDS011;6471;50.932;6.934;2022-08-01T01:58:41;3.37;;;2.27;;
12812;SDS011;6471;50.932;6.934;2022-08-01T02:01:08;3.67;;;2.07;;
12812;SDS011;6471;50.932;6.934;2022-08-01T02:03:36;3.73;;;2.37;;
12812;SDS011;6471;50.932;6.934;2022-08-01T02:06:03;3.13;;;2.03;;
12812;SDS011;6471;50.932;6.934;2022-08-01T02:08:29;2.90;;;2.00;;
12812;SDS011;6471;50.932;6.934;2022-08-01T02:10:56;2.30;;;2.10;;
12812;SDS011;6471;50.932;6.934;2022-08-01T02:13:41;2.67;;;2.10;;
12812;SDS011;6471;50.932;6.934;2022-08-01T02:16:08;4.17;;;2.23;;
12812;SDS011;6471;50.932;6.934;2022-08-01T02:18:36;3.20;;;2.33;;
12812;SDS011;6471;50.932;6.934;2022-08-01T02:21:03;2.50;;;2.20;;
12812;SDS011;6471;50.932;6.934;2022-08-01T02:23:31;3.30;;;2.03;;
12812;SDS011;6471;50.932;6.934;2022-08-01T02:26:00;3.63;;;2.23;;
12812;SDS011;6471;50.932;6.934;2022-08-01T02:28:35;2.97;;;2.40;;
12812;SDS011;6471;50.932;6.934;2022-08-01T02:31:06;2.17;;;1.80;;
12812;SDS011;6471;50.932;6.934;2022-08-01T02:33:41;4.33;;;2.47;;
12812;SDS011;6471;50.932;6.934;2022-08-01T02:36:08;3.67;;;2.33;;
12812;SDS011;6471;50.932;6.934;2022-08-01T02:38:37;3.80;;;2.30;;
12812;SDS011;6471;50.932;6.934;2022-08-01T02:41:08;3.03;;;2.23;;
12812;SDS011;6471;50.932;6.934;2022-08-01T02:43:36;5.27;;;2.60;;
12812;SDS011;6471;50.932;6.934;2022-08-01T02:46:03;3.87;;;2.80;;
12812;SDS011;6471;50.932;6.934;2022-08-01T02:48:30;3.67;;;2.30;;
12812;SDS011;6471;50.932;6.934;2022-08-01T02:50:58;2.80;;;2.50;;
12812;SDS011;6471;50.932;6.934;2022-08-01T02:53:25;3.70;;;2.60;;
12812;SDS011;6471;50.932;6.934;2022-08-01T02:55:52;3.13;;;2.70;;
12812;SDS011;6471;50.932;6.934;2022-08-01T02:58:19;4.67;;;2.80;;
12812;SDS011;6471;50.932;6.934;2022-08-01T03:00:48;3.33;;;2.40;;
12812;SDS011;6471;50.932;6.934;2022-08-01T03:03:15;3.33;;;2.60;;
12812;SDS011;6471;50.932;6.934;2022-08-01T03:05:41;3.97;;;2.60;;
12812;SDS011;6471;50.932;6.934;2022-08-01T03:08:09;2.73;;;2.40;;
12812;SDS011;6471;50.932;6.934;2022-08-01T03:10:36;4.10;;;2.67;;
12812;SDS011;6471;50.932;6.934;2022-08-01T03:13:03;3.30;;;2.60;;
12812;SDS011;6471;50.932;6.934;2022-08-01T03:15:31;5.07;;;2.67;;
12812;SDS011;6471;50.932;6.934;2022-08-01T03:17:58;4.97;;;2.50;;
12812;SDS011;6471;50.932;6.934;2022-08-01T03:20:24;3.37;;;2.60;;
12812;SDS011;6471;50.932;6.934;2022-08-01T03:22:51;3.57;;;2.73;;
12812;SDS011;6471;50.932;6.934;2022-08-01T03:25:18;5.83;;;2.93;;
12812;SDS011;6471;50.932;6.934;2022-08-01T03:27:47;3.63;;;2.77;;
12812;SDS011;6471;50.932;6.934;2022-08-01T03:30:16;3.00;;;2.70;;
12812;SDS011;6471;50.932;6.934;2022-08-01T03:32:42;4.50;;;2.83;;
12812;SDS011;6471;50.932;6.934;2022-08-01T03:35:08;4.53;;;2.80;;
12812;SDS011;6471;50.932;6.934;2022-08-01T03:37:36;5.03;;;2.73;;
12812;SDS011;6471;50.932;6.934;2022-08-01T03:42:41;5.97;;;3.50;;
12812;SDS011;6471;50.932;6.934;2022-08-01T03:45:10;7.13;;;4.03;;
12812;SDS011;6471;50.932;6.934;2022-08-01T03:47:37;4.80;;;3.20;;
12812;SDS011;6471;50.932;6.934;2022-08-01T03:50:08;5.57;;;3.60;;
12812;SDS011;6471;50.932;6.934;2022-08-01T03:52:35;6.73;;;4.10;;
12812;SDS011;6471;50.932;6.934;2022-08-01T03:55:04;4.80;;;3.50;;
12812;SDS011;6471;50.932;6.934;2022-08-01T03:57:33;6.00;;;4.20;;
12812;SDS011;6471;50.932;6.934;2022-08-01T03:59:59;7.57;;;4.30;;
12812;SDS011;6471;50.932;6.934;2022-08-01T04:02:26;8.27;;;3.97;;
12812;SDS011;6471;50.932;6.934;2022-08-01T04:04:52;5.63;;;3.77;;
12812;SDS011;6471;50.932;6.934;2022-08-01T04:07:26;6.33;;;4.33;;
12812;SDS011;6471;50.932;6.934;2022-08-01T04:09:52;7.20;;;4.20;;
12812;SDS011;6471;50.932;6.934;2022-08-01T04:12:19;5.33;;;3.83;;
12812;SDS011;6471;50.932;6.934;2022-08-01T04:14:45;5.70;;;4.20;;
12812;SDS011;6471;50.932;6.934;2022-08-01T04:17:11;6.77;;;4.40;;
12812;SDS011;6471;50.932;6.934;2022-08-01T04:19:37;5.47;;;4.40;;
12812;SDS011;6471;50.932;6.934;2022-08-01T04:22:04;5.63;;;4.30;;
12812;SDS011;6471;50.932;6.934;2022-08-01T04:24:30;6.70;;;4.17;;
12812;SDS011;6471;50.932;6.934;2022-08-01T04:26:58;5.53;;;4.03;;
12812;SDS011;6471;50.932;6.934;2022-08-01T04:29:26;6.13;;;4.17;;
12812;SDS011;6471;50.932;6.934;2022-08-01T04:31:52;5.20;;;3.93;;
12812;SDS011;6471;50.932;6.934;2022-08-01T04:34:20;5.00;;;4.17;;
12812;SDS011;6471;50.932;6.934;2022-08-01T04:36:46;4.20;;;3.80;;
12812;SDS011;6471;50.932;6.934;2022-08-01T04:39:13;5.13;;;4.17;;
12812;SDS011;6471;50.932;6.934;2022-08-01T04:41:40;5.20;;;4.03;;
12812;SDS011;6471;50.932;6.934;2022-08-01T04:44:06;5.13;;;4.10;;
12812;SDS011;6471;50.932;6.934;2022-08-01T04:46:32;5.57;;;4.30;;
12812;SDS011;6471;50.932;6.934;2022-08-01T04:48:59;5.00;;;3.93;;
12812;SDS011;6471;50.932;6.934;2022-08-01T04:51:25;6.70;;;4.40;;
12812;SDS011;6471;50.932;6.934;2022-08-01T04:53:51;7.43;;;4.27;;
12812;SDS011;6471;50.932;6.934;2022-08-01T04:56:18;9.43;;;4.40;;
12812;SDS011;6471;50.932;6.934;2022-08-01T04:58:45;5.57;;;4.23;;
12812;SDS011;6471;50.932;6.934;2022-08-01T05:01:12;5.73;;;4.33;;
12812;SDS011;6471;50.932;6.934;2022-08-01T05:03:38;8.50;;;5.00;;
12812;SDS011;6471;50.932;6.934;2022-08-01T05:06:04;6.37;;;4.90;;
12812;SDS011;6471;50.932;6.934;2022-08-01T05:08:31;5.63;;;4.33;;
12812;SDS011;6471;50.932;6.934;2022-08-01T05:10:57;5.77;;;4.50;;
12812;SDS011;6471;50.932;6.934;2022-08-01T05:13:23;5.20;;;4.27;;
12812;SDS011;6471;50.932;6.934;2022-08-01T05:15:49;4.83;;;4.03;;
12812;SDS011;6471;50.932;6.934;2022-08-01T05:18:15;7.20;;;5.03;;
12812;SDS011;6471;50.932;6.934;2022-08-01T05:20:41;5.03;;;4.10;;
12812;SDS011;6471;50.932;6.934;2022-08-01T05:23:07;6.90;;;4.70;;
12812;SDS011;6471;50.932;6.934;2022-08-01T05:25:33;6.43;;;5.03;;
12812;SDS011;6471;50.932;6.934;2022-08-01T05:27:59;6.87;;;5.30;;
12812;SDS011;6471;50.932;6.934;2022-08-01T05:30:25;10.27;;;5.87;;
12812;SDS011;6471;50.932;6.934;2022-08-01T05:32:51;6.63;;;5.33;;
12812;SDS011;6471;50.932;6.934;2022-08-01T05:35:17;8.27;;;5.60;;
12812;SDS011;6471;50.932;6.934;2022-08-01T05:37:44;8.83;;;6.20;;
12812;SDS011;6471;50.932;6.934;2022-08-01T05:40:10;8.13;;;5.63;;
12812;SDS011;6471;50.932;6.934;2022-08-01T05:42:36;6.47;;;4.83;;
12812;SDS011;6471;50.932;6.934;2022-08-01T05:45:02;7.30;;;5.30;;
12812;SDS011;6471;50.932;6.934;2022-08-01T05:47:29;10.97;;;6.70;;
12812;SDS011;6471;50.932;6.934;2022-08-01T05:49:55;7.17;;;6.17;;
12812;SDS011;6471;50.932;6.934;2022-08-01T05:52:21;10.20;;;7.10;;
12812;SDS011;6471;50.932;6.934;2022-08-01T05:54:47;12.57;;;6.97;;
12812;SDS011;6471;50.932;6.934;2022-08-01T05:57:13;9.73;;;7.40;;
12812;SDS011;6471;50.932;6.934;2022-08-01T05:59:41;9.77;;;7.20;;
12812;SDS011;6471;50.932;6.934;2022-08-01T06:02:08;10.03;;;7.73;;
12812;SDS011;6471;50.932;6.934;2022-08-01T06:04:36;7.80;;;6.30;;
12812;SDS011;6471;50.932;6.934;2022-08-01T06:07:02;9.00;;;6.80;;
12812;SDS011;6471;50.932;6.934;2022-08-01T06:09:28;8.83;;;7.37;;
12812;SDS011;6471;50.932;6.934;2022-08-01T06:11:55;7.93;;;6.80;;
12812;SDS011;6471;50.932;6.934;2022-08-01T06:14:21;9.50;;;6.97;;
12812;SDS011;6471;50.932;6.934;2022-08-01T06:16:47;8.60;;;6.63;;
12812;SDS011;6471;50.932;6.934;2022-08-01T06:19:13;9.33;;;7.13;;
12812;SDS011;6471;50.932;6.934;2022-08-01T06:21:40;8.80;;;7.10;;
12812;SDS011;6471;50.932;6.934;2022-08-01T06:24:06;7.43;;;6.63;;
12812;SDS011;6471;50.932;6.934;2022-08-01T06:26:32;8.83;;;6.90;;
12812;SDS011;6471;50.932;6.934;2022-08-01T06:29:00;12.00;;;7.40;;
12812;SDS011;6471;50.932;6.934;2022-08-01T06:31:26;9.37;;;6.60;;
12812;SDS011;6471;50.932;6.934;2022-08-01T06:33:52;6.67;;;5.90;;
12812;SDS011;6471;50.932;6.934;2022-08-01T06:36:18;6.73;;;5.93;;
12812;SDS011;6471;50.932;6.934;2022-08-01T06:38:44;9.47;;;6.67;;
12812;SDS011;6471;50.932;6.934;2022-08-01T06:41:10;7.33;;;5.80;;
12812;SDS011;6471;50.932;6.934;2022-08-01T06:43:36;8.03;;;6.03;;
12812;SDS011;6471;50.932;6.934;2022-08-01T06:46:02;7.03;;;6.20;;
12812;SDS011;6471;50.932;6.934;2022-08-01T06:48:28;10.53;;;7.70;;
12812;SDS011;6471;50.932;6.934;2022-08-01T06:50:54;8.83;;;6.67;;
12812;SDS011;6471;50.932;6.934;2022-08-01T06:53:33;11.57;;;7.43;;
12812;SDS011;6471;50.932;6.934;2022-08-01T06:55:59;9.07;;;6.90;;
12812;SDS011;6471;50.932;6.934;2022-08-01T06:58:25;6.33;;;5.50;;
12812;SDS011;6471;50.932;6.934;2022-08-01T07:00:54;8.40;;;6.60;;
12812;SDS011;6471;50.932;6.934;2022-08-01T07:03:23;7.20;;;5.70;;
12812;SDS011;6471;50.932;6.934;2022-08-01T07:05:49;9.53;;;7.37;;
12812;SDS011;6471;50.932;6.934;2022-08-01T07:08:15;10.93;;;7.87;;
12812;SDS011;6471;50.932;6.934;2022-08-01T07:10:42;7.93;;;6.87;;
12812;SDS011;6471;50.932;6.934;2022-08-01T07:13:08;8.10;;;6.20;;
12812;SDS011;6471;50.932;6.934;2022-08-01T07:15:34;10.23;;;7.40;;
12812;SDS011;6471;50.932;6.934;2022-08-01T07:18:00;9.63;;;7.87;;
12812;SDS011;6471;50.932;6.934;2022-08-01T07:20:28;10.97;;;8.63;;
12812;SDS011;6471;50.932;6.934;2022-08-01T07:22:54;9.53;;;7.93;;
12812;SDS011;6471;50.932;6.934;2022-08-01T07:25:20;8.73;;;7.50;;
12812;SDS011;6471;50.932;6.934;2022-08-01T07:27:46;9.73;;;7.50;;
12812;SDS011;6471;50.932;6.934;2022-08-01T07:30:12;8.30;;;7.30;;
12812;SDS011;6471;50.932;6.934;2022-08-01T07:32:38;7.80;;;7.00;;
12812;SDS011;6471;50.932;6.934;2022-08-01T07:35:05;8.17;;;7.07;;
12812;SDS011;6471;50.932;6.934;2022-08-01T07:37:31;8.87;;;7.33;;
12812;SDS011;6471;50.932;6.934;2022-08-01T07:39:57;11.87;;;7.40;;
12812;SDS011;6471;50.932;6.934;2022-08-01T07:42:23;7.67;;;6.80;;
12812;SDS011;6471;50.932;6.934;2022-08-01T07:44:49;7.90;;;6.80;;
12812;SDS011;6471;50.932;6.934;2022-08-01T07:47:15;9.23;;;7.73;;
12812;SDS011;6471;50.932;6.934;2022-08-01T07:49:41;9.40;;;8.03;;
12812;SDS011;6471;50.932;6.934;2022-08-01T07:52:07;9.30;;;8.17;;
12812;SDS011;6471;50.932;6.934;2022-08-01T07:54:34;8.80;;;7.53;;
12812;SDS011;6471;50.932;6.934;2022-08-01T07:57:00;8.67;;;7.27;;
12812;SDS011;6471;50.932;6.934;2022-08-01T07:59:27;9.77;;;7.87;;
12812;SDS011;6471;50.932;6.934;2022-08-01T08:01:53;9.03;;;7.03;;
12812;SDS011;6471;50.932;6.934;2022-08-01T08:04:19;7.10;;;6.40;;
12812;SDS011;6471;50.932;6.934;2022-08-01T08:06:45;6.33;;;5.73;;
12812;SDS011;6471;50.932;6.934;2022-08-01T08:09:12;7.23;;;6.53;;
12812;SDS011;6471;50.932;6.934;2022-08-01T08:11:39;7.60;;;6.27;;
12812;SDS011;6471;50.932;6.934;2022-08-01T08:14:05;6.33;;;5.73;;
12812;SDS011;6471;50.932;6.934;2022-08-01T08:16:31;5.80;;;5.20;;
12812;SDS011;6471;50.932;6.934;2022-08-01T08:18:57;5.40;;;4.90;;
12812;SDS011;6471;50.932;6.934;2022-08-01T08:21:23;5.53;;;4.90;;
12812;SDS011;6471;50.932;6.934;2022-08-01T08:23:49;7.23;;;6.10;;
12812;SDS011;6471;50.932;6.934;2022-08-01T08:26:34;7.07;;;5.73;;
12812;SDS011;6471;50.932;6.934;2022-08-01T08:29:00;7.87;;;6.07;;
12812;SDS011;6471;50.932;6.934;2022-08-01T08:31:26;6.93;;;6.10;;
12812;SDS011;6471;50.932;6.934;2022-08-01T08:33:52;7.23;;;5.97;;
12812;SDS011;6471;50.932;6.934;2022-08-01T08:36:18;6.10;;;5.50;;
12812;SDS011;6471;50.932;6.934;2022-08-01T08:38:44;6.23;;;5.07;;
12812;SDS011;6471;50.932;6.934;2022-08-01T08:41:10;8.03;;;5.70;;
12812;SDS011;6471;50.932;6.934;2022-08-01T08:43:36;6.43;;;5.57;;
12812;SDS011;6471;50.932;6.934;2022-08-01T08:46:02;8.07;;;5.70;;
12812;SDS011;6471;50.932;6.934;2022-08-01T08:48:29;6.10;;;5.50;;
12812;SDS011;6471;50.932;6.934;2022-08-01T08:50:55;7.27;;;5.87;;
12812;SDS011;6471;50.932;6.934;2022-08-01T08:53:22;6.60;;;5.67;;
12812;SDS011;6471;50.932;6.934;2022-08-01T08:55:49;5.70;;;5.20;;
12812;SDS011;6471;50.932;6.934;2022-08-01T08:58:15;9.27;;;5.90;;
12812;SDS011;6471;50.932;6.934;2022-08-01T09:00:43;7.07;;;5.63;;
12812;SDS011;6471;50.932;6.934;2022-08-01T09:03:09;5.80;;;5.13;;
12812;SDS011;6471;50.932;6.934;2022-08-01T09:05:35;5.17;;;4.67;;
12812;SDS011;6471;50.932;6.934;2022-08-01T09:08:03;5.60;;;4.80;;
12812;SDS011;6471;50.932;6.934;2022-08-01T09:10:31;5.33;;;4.83;;
12812;SDS011;6471;50.932;6.934;2022-08-01T09:13:08;6.80;;;5.07;;
12812;SDS011;6471;50.932;6.934;2022-08-01T09:15:44;5.63;;;5.10;;
12812;SDS011;6471;50.932;6.934;2022-08-01T09:18:25;6.10;;;5.17;;
12812;SDS011;6471;50.932;6.934;2022-08-01T09:21:06;6.60;;;5.00;;
12812;SDS011;6471;50.932;6.934;2022-08-01T09:23:33;5.50;;;5.00;;
12812;SDS011;6471;50.932;6.934;2022-08-01T09:26:00;5.17;;;4.70;;
12812;SDS011;6471;50.932;6.934;2022-08-01T09:28:29;7.97;;;5.33;;
12812;SDS011;6471;50.932;6.934;2022-08-01T09:30:56;6.20;;;5.03;;
12812;SDS011;6471;50.932;6.934;2022-08-01T09:33:22;5.67;;;4.80;;
12812;SDS011;6471;50.932;6.934;2022-08-01T09:35:55;6.43;;;5.53;;
12812;SDS011;6471;50.932;6.934;2022-08-01T09:38:22;6.10;;;5.50;;
12812;SDS011;6471;50.932;6.934;2022-08-01T09:43:19;6.40;;;5.67;;
12812;SDS011;6471;50.932;6.934;2022-08-01T09:45:45;6.27;;;5.00;;
12812;SDS011;6471;50.932;6.934;2022-08-01T09:48:11;6.83;;;5.13;;
12812;SDS011;6471;50.932;6.934;2022-08-01T09:50:38;6.77;;;5.13;;
12812;SDS011;6471;50.932;6.934;2022-08-01T09:53:05;5.77;;;4.90;;
12812;SDS011;6471;50.932;6.934;2022-08-01T09:55:31;5.47;;;4.37;;
12812;SDS011;6471;50.932;6.934;2022-08-01T09:57:57;6.70;;;4.43;;
12812;SDS011;6471;50.932;6.934;2022-08-01T10:00:26;5.00;;;4.60;;
12812;SDS011;6471;50.932;6.934;2022-08-01T10:02:52;5.37;;;4.50;;
12812;SDS011;6471;50.932;6.934;2022-08-01T10:05:29;6.23;;;4.87;;
12812;SDS011;6471;50.932;6.934;2022-08-01T10:07:58;5.30;;;4.80;;
12812;SDS011;6471;50.932;6.934;2022-08-01T10:10:25;5.13;;;4.00;;
12812;SDS011;6471;50.932;6.934;2022-08-01T10:12:52;4.83;;;4.33;;
12812;SDS011;6471;50.932;6.934;2022-08-01T10:15:18;4.30;;;3.90;;
12812;SDS011;6471;50.932;6.934;2022-08-01T10:17:58;4.37;;;3.97;;
12812;SDS011;6471;50.932;6.934;2022-08-01T10:20:28;5.00;;;4.50;;
12812;SDS011;6471;50.932;6.934;2022-08-01T10:22:55;3.97;;;3.67;;
12812;SDS011;6471;50.932;6.934;2022-08-01T10:25:21;5.53;;;5.03;;
12812;SDS011;6471;50.932;6.934;2022-08-01T10:27:48;5.23;;;4.73;;
12812;SDS011;6471;50.932;6.934;2022-08-01T10:30:15;4.67;;;4.27;;
12812;SDS011;6471;50.932;6.934;2022-08-01T10:32:41;5.37;;;4.73;;
12812;SDS011;6471;50.932;6.934;2022-08-01T10:35:08;5.33;;;4.83;;
12812;SDS011;6471;50.932;6.934;2022-08-01T10:37:39;5.97;;;4.40;;
12812;SDS011;6471;50.932;6.934;2022-08-01T10:40:06;5.00;;;4.60;;
12812;SDS011;6471;50.932;6.934;2022-08-01T10:42:33;5.53;;;4.60;;
12812;SDS011;6471;50.932;6.934;2022-08-01T10:44:59;4.67;;;4.20;;
12812;SDS011;6471;50.932;6.934;2022-08-01T10:47:45;3.95;;;3.65;;
12812;SDS011;6471;50.932;6.934;2022-08-01T10:50:17;3.80;;;3.50;;
12812;SDS011;6471;50.932;6.934;2022-08-01T10:53:06;4.40;;;4.00;;
12812;SDS011;6471;50.932;6.934;2022-08-01T10:55:48;5.40;;;3.90;;
12812;SDS011;6471;50.932;6.934;2022-08-01T10:58:28;4.53;;;4.10;;
12812;SDS011;6471;50.932;6.934;2022-08-01T11:03:43;4.43;;;3.57;;
12812;SDS011;6471;50.932;6.934;2022-08-01T11:06:17;5.10;;;3.50;;
12812;SDS011;6471;50.932;6.934;2022-08-01T11:08:49;8.00;;;4.40;;
12812;SDS011;6471;50.932;6.934;2022-08-01T11:11:16;4.13;;;3.70;;
12812;SDS011;6471;50.932;6.934;2022-08-01T11:16:29;5.37;;;4.00;;
12812;SDS011;6471;50.932;6.934;2022-08-01T11:18:56;3.72;;;3.42;;
12812;SDS011;6471;50.932;6.934;2022-08-01T11:21:22;4.18;;;3.78;;
12812;SDS011;6471;50.932;6.934;2022-08-01T11:23:51;3.90;;;3.53;;
12812;SDS011;6471;50.932;6.934;2022-08-01T11:26:18;5.88;;;3.90;;
12812;SDS011;6471;50.932;6.934;2022-08-01T11:28:46;5.30;;;3.38;;
12812;SDS011;6471;50.932;6.934;2022-08-01T11:38:39;4.30;;;3.90;;
12812;SDS011;6471;50.932;6.934;2022-08-01T11:43:36;6.20;;;4.50;;
12812;SDS011;6471;50.932;6.934;2022-08-01T11:46:07;4.82;;;4.30;;
12812;SDS011;6471;50.932;6.934;2022-08-01T11:48:33;4.13;;;3.67;;
12812;SDS011;6471;50.932;6.934;2022-08-01T11:51:04;4.53;;;4.10;;
12812;SDS011;6471;50.932;6.934;2022-08-01T11:53:47;4.93;;;4.03;;
12812;SDS011;6471;50.932;6.934;2022-08-01T11:56:15;4.33;;;3.93;;
12812;SDS011;6471;50.932;6.934;2022-08-01T11:58:41;4.13;;;3.73;;
12812;SDS011;6471;50.932;6.934;2022-08-01T12:01:07;4.25;;;3.50;;
12812;SDS011;6471;50.932;6.934;2022-08-01T12:03:38;3.40;;;3.10;;
12812;SDS011;6471;50.932;6.934;2022-08-01T12:06:04;4.13;;;3.60;;
12812;SDS011;6471;50.932;6.934;2022-08-01T12:08:31;3.87;;;3.57;;
12812;SDS011;6471;50.932;6.934;2022-08-01T12:10:59;4.33;;;3.20;;
12812;SDS011;6471;50.932;6.934;2022-08-01T12:13:26;4.30;;;3.15;;
12812;SDS011;6471;50.932;6.934;2022-08-01T12:15:53;3.08;;;2.78;;
12812;SDS011;6471;50.932;6.934;2022-08-01T12:18:19;4.50;;;3.23;;
12812;SDS011;6471;50.932;6.934;2022-08-01T12:20:45;4.30;;;3.20;;
12812;SDS011;6471;50.932;6.934;2022-08-01T12:23:13;4.00;;;3.20;;
12812;SDS011;6471;50.932;6.934;2022-08-01T12:25:39;3.47;;;3.10;;
12812;SDS011;6471;50.932;6.934;2022-08-01T12:28:06;3.50;;;3.00;;
12812;SDS011;6471;50.932;6.934;2022-08-01T12:30:38;3.30;;;2.87;;
12812;SDS011;6471;50.932;6.934;2022-08-01T12:33:06;4.60;;;2.80;;
12812;SDS011;6471;50.932;6.934;2022-08-01T12:35:34;3.33;;;3.03;;
12812;SDS011;6471;50.932;6.934;2022-08-01T12:38:02;3.17;;;2.88;;
12812;SDS011;6471;50.932;6.934;2022-08-01T12:40:30;5.97;;;3.70;;
12812;SDS011;6471;50.932;6.934;2022-08-01T12:43:00;4.47;;;4.05;;
12812;SDS011;6471;50.932;6.934;2022-08-01T12:45:28;3.92;;;3.63;;
12812;SDS011;6471;50.932;6.934;2022-08-01T12:47:56;3.20;;;2.90;;
12812;SDS011;6471;50.932;6.934;2022-08-01T12:50:25;3.30;;;2.93;;
12812;SDS011;6471;50.932;6.934;2022-08-01T12:52:53;3.78;;;2.90;;
12812;SDS011;6471;50.932;6.934;2022-08-01T12:55:20;2.47;;;2.27;;
12812;SDS011;6471;50.932;6.934;2022-08-01T12:57:47;3.17;;;2.88;;
12812;SDS011;6471;50.932;6.934;2022-08-01T13:02:45;2.90;;;2.67;;
12812;SDS011;6471;50.932;6.934;2022-08-01T13:05:11;2.75;;;2.50;;
12812;SDS011;6471;50.932;6.934;2022-08-01T13:10:11;3.13;;;2.30;;
12812;SDS011;6471;50.932;6.934;2022-08-01T13:12:40;5.38;;;2.92;;
12812;SDS011;6471;50.932;6.934;2022-08-01T13:18:21;2.60;;;2.40;;
12812;SDS011;6471;50.932;6.934;2022-08-01T13:20:48;2.47;;;1.75;;
12812;SDS011;6471;50.932;6.934;2022-08-01T13:23:15;2.35;;;1.98;;
12812;SDS011;6471;50.932;6.934;2022-08-01T13:28:14;3.67;;;2.30;;
12812;SDS011;6471;50.932;6.934;2022-08-01T13:30:49;2.88;;;2.00;;
12812;SDS011;6471;50.932;6.934;2022-08-01T13:33:16;2.03;;;1.83;;
12812;SDS011;6471;50.932;6.934;2022-08-01T13:35:42;2.10;;;1.85;;
12812;SDS011;6471;50.932;6.934;2022-08-01T13:38:08;2.20;;;1.60;;
12812;SDS011;6471;50.932;6.934;2022-08-01T13:40:34;3.25;;;1.85;;
12812;SDS011;6471;50.932;6.934;2022-08-01T13:43:00;2.70;;;1.80;;
12812;SDS011;6471;50.932;6.934;2022-08-01T13:45:27;2.83;;;1.80;;
12812;SDS011;6471;50.932;6.934;2022-08-01T13:47:53;2.40;;;1.80;;
12812;SDS011;6471;50.932;6.934;2022-08-01T13:50:22;2.03;;;1.77;;
12812;SDS011;6471;50.932;6.934;2022-08-01T13:52:48;1.75;;;1.65;;
12812;SDS011;6471;50.932;6.934;2022-08-01T13:55:16;2.28;;;1.63;;
12812;SDS011;6471;50.932;6.934;2022-08-01T13:57:43;3.93;;;1.80;;
12812;SDS011;6471;50.932;6.934;2022-08-01T14:00:09;2.22;;;1.70;;
12812;SDS011;6471;50.932;6.934;2022-08-01T14:02:35;2.80;;;1.73;;
12812;SDS011;6471;50.932;6.934;2022-08-01T14:05:01;2.57;;;1.70;;
12812;SDS011;6471;50.932;6.934;2022-08-01T14:07:28;1.90;;;1.37;;
12812;SDS011;6471;50.932;6.934;2022-08-01T14:13:21;2.93;;;1.70;;
12812;SDS011;6471;50.932;6.934;2022-08-01T14:15:52;1.87;;;1.67;;
12812;SDS011;6471;50.932;6.934;2022-08-01T14:18:39;1.97;;;1.73;;
12812;SDS011;6471;50.932;6.934;2022-08-01T14:21:40;2.80;;;1.80;;
12812;SDS011;6471;50.932;6.934;2022-08-01T14:30:48;1.75;;;1.40;;
12812;SDS011;6471;50.932;6.934;2022-08-01T14:33:15;1.58;;;1.48;;
12812;SDS011;6471;50.932;6.934;2022-08-01T14:36:16;1.83;;;1.50;;
12812;SDS011;6471;50.932;6.934;2022-08-01T14:39:02;2.73;;;1.70;;
12812;SDS011;6471;50.932;6.934;2022-08-01T14:44:18;1.63;;;1.35;;
12812;SDS011;6471;50.932;6.934;2022-08-01T14:47:14;1.50;;;1.40;;
12812;SDS011;6471;50.932;6.934;2022-08-01T14:49:50;1.50;;;1.40;;
12812;SDS011;6471;50.932;6.934;2022-08-01T14:52:19;2.35;;;1.58;;
12812;SDS011;6471;50.932;6.934;2022-08-01T14:54:46;1.90;;;1.70;;
12812;SDS011;6471;50.932;6.934;2022-08-01T15:03:23;2.85;;;1.60;;
12812;SDS011;6471;50.932;6.934;2022-08-01T15:05:49;1.50;;;1.40;;
12812;SDS011;6471;50.932;6.934;2022-08-01T15:08:16;2.88;;;1.65;;
12812;SDS011;6471;50.932;6.934;2022-08-01T15:20:31;1.85;;;1.63;;
12812;SDS011;6471;50.932;6.934;2022-08-01T15:48:08;1.90;;;1.60;;
12812;SDS011;6471;50.932;6.934;2022-08-01T15:50:39;3.92;;;2.00;;
12812;SDS011;6471;50.932;6.934;2022-08-01T15:53:19;1.90;;;1.70;;
12812;SDS011;6471;50.932;6.934;2022-08-01T15:55:51;2.47;;;2.00;;
12812;SDS011;6471;50.932;6.934;2022-08-01T15:58:43;3.25;;;2.50;;
12812;SDS011;6471;50.932;6.934;2022-08-01T16:04:22;2.00;;;1.77;;
12812;SDS011;6471;50.932;6.934;2022-08-01T16:06:54;1.95;;;1.75;;
12812;SDS011;6471;50.932;6.934;2022-08-01T16:09:55;2.50;;;1.80;;
12812;SDS011;6471;50.932;6.934;2022-08-01T16:19:24;2.25;;;1.80;;
12812;SDS011;6471;50.932;6.934;2022-08-01T16:22:01;2.53;;;1.80;;
12812;SDS011;6471;50.932;6.934;2022-08-01T16:24:27;1.60;;;1.50;;
12812;SDS011;6471;50.932;6.934;2022-08-01T16:26:55;3.72;;;2.53;;
12812;SDS011;6471;50.932;6.934;2022-08-01T16:29:21;2.97;;;2.00;;
12812;SDS011;6471;50.932;6.934;2022-08-01T16:32:05;13.60;;;10.70;;
12812;SDS011;6471;50.932;6.934;2022-08-01T16:47:16;2.00;;;1.90;;
12812;SDS011;6471;50.932;6.934;2022-08-01T17:08:42;2.73;;;2.37;;
12812;SDS011;6471;50.932;6.934;2022-08-01T17:32:11;3.00;;;2.30;;
12812;SDS011;6471;50.932;6.934;2022-08-01T17:38:35;2.73;;;2.20;;
12812;SDS011;6471;50.932;6.934;2022-08-01T18:05:25;4.10;;;2.00;;
12812;SDS011;6471;50.932;6.934;2022-08-01T18:08:20;2.47;;;1.80;;
12812;SDS011;6471;50.932;6.934;2022-08-01T18:11:03;3.53;;;1.90;;
12812;SDS011;6471;50.932;6.934;2022-08-01T18:17:10;3.53;;;1.80;;